Beecher, Illinois
Current Conditions -  °F | °C
As of 1:15 AM on Wednesday 22 Oct 2014 (Local Time) from KIGQ Reporting Station
Clear Clear  
Wind Chill: 40°   Ceiling: Unl
Heat Index: 40°   Visibility: 10mi
Dew Point: 36°   Wind: 0mph
Humidity: 88%   Direction: NA
Pressure: 30.26"   Gusts: NA
Location:  41.34°N, 87.62°W
Report Text: KIGQ 220615Z AUTO 00000KT 10SM CLR 04/02 A3026 RMK AO2 T00420023
Loading
Personal Weather Stations






























Interactive Weather Map
Tropical Storm Tracking
New forecast layout! Learn more

10-Day Weather Forecast

Advertisements
Track Severe Weather on mobile